sensor_id;sensor_type;location;lat;lon;timestamp;P1;durP1;ratioP1;P2;durP2;ratioP2
56005;SDS011;41888;44.696;10.522;2023-12-22T00:00:09;35.15;;;18.20;;
56005;SDS011;41888;44.696;10.522;2023-12-22T00:02:35;31.92;;;17.45;;
56005;SDS011;41888;44.696;10.522;2023-12-22T00:05:01;29.00;;;16.23;;
56005;SDS011;41888;44.696;10.522;2023-12-22T00:07:27;34.28;;;18.92;;
56005;SDS011;41888;44.696;10.522;2023-12-22T00:09:54;28.88;;;16.98;;
56005;SDS011;41888;44.696;10.522;2023-12-22T00:12:20;29.67;;;17.60;;
56005;SDS011;41888;44.696;10.522;2023-12-22T00:14:46;32.13;;;17.98;;
56005;SDS011;41888;44.696;10.522;2023-12-22T00:17:12;42.03;;;18.38;;
56005;SDS011;41888;44.696;10.522;2023-12-22T00:19:39;34.90;;;17.05;;
56005;SDS011;41888;44.696;10.522;2023-12-22T00:22:05;33.53;;;18.38;;
56005;SDS011;41888;44.696;10.522;2023-12-22T00:24:32;31.40;;;17.25;;
56005;SDS011;41888;44.696;10.522;2023-12-22T00:26:58;34.08;;;17.83;;
56005;SDS011;41888;44.696;10.522;2023-12-22T00:29:24;34.00;;;15.90;;
56005;SDS011;41888;44.696;10.522;2023-12-22T00:31:53;32.53;;;15.85;;
56005;SDS011;41888;44.696;10.522;2023-12-22T00:34:21;26.23;;;14.43;;
56005;SDS011;41888;44.696;10.522;2023-12-22T00:36:48;29.90;;;14.88;;
56005;SDS011;41888;44.696;10.522;2023-12-22T00:39:14;27.00;;;15.15;;
56005;SDS011;41888;44.696;10.522;2023-12-22T00:41:40;25.45;;;14.32;;
56005;SDS011;41888;44.696;10.522;2023-12-22T00:44:06;31.75;;;15.05;;
56005;SDS011;41888;44.696;10.522;2023-12-22T00:46:32;25.77;;;14.25;;
56005;SDS011;41888;44.696;10.522;2023-12-22T00:48:58;25.42;;;15.23;;
56005;SDS011;41888;44.696;10.522;2023-12-22T00:51:25;35.63;;;14.15;;
56005;SDS011;41888;44.696;10.522;2023-12-22T00:53:51;29.13;;;14.02;;
56005;SDS011;41888;44.696;10.522;2023-12-22T00:56:17;26.70;;;14.90;;
56005;SDS011;41888;44.696;10.522;2023-12-22T00:58:43;23.48;;;12.68;;
56005;SDS011;41888;44.696;10.522;2023-12-22T01:01:09;34.50;;;14.32;;
56005;SDS011;41888;44.696;10.522;2023-12-22T01:03:35;26.50;;;13.80;;
56005;SDS011;41888;44.696;10.522;2023-12-22T01:06:02;25.98;;;14.63;;
56005;SDS011;41888;44.696;10.522;2023-12-22T01:08:28;28.95;;;13.73;;
56005;SDS011;41888;44.696;10.522;2023-12-22T01:10:54;28.52;;;13.60;;
56005;SDS011;41888;44.696;10.522;2023-12-22T01:13:20;25.13;;;12.73;;
56005;SDS011;41888;44.696;10.522;2023-12-22T01:15:46;27.38;;;12.30;;
56005;SDS011;41888;44.696;10.522;2023-12-22T01:18:13;24.30;;;10.70;;
56005;SDS011;41888;44.696;10.522;2023-12-22T01:20:39;21.98;;;11.18;;
56005;SDS011;41888;44.696;10.522;2023-12-22T01:23:05;26.58;;;12.07;;
56005;SDS011;41888;44.696;10.522;2023-12-22T01:25:31;25.75;;;10.95;;
56005;SDS011;41888;44.696;10.522;2023-12-22T01:27:57;21.33;;;10.02;;
56005;SDS011;41888;44.696;10.522;2023-12-22T01:30:24;20.73;;;10.50;;
56005;SDS011;41888;44.696;10.522;2023-12-22T01:32:50;20.05;;;10.27;;
56005;SDS011;41888;44.696;10.522;2023-12-22T01:35:16;23.02;;;11.32;;
56005;SDS011;41888;44.696;10.522;2023-12-22T01:37:42;14.80;;;8.65;;
56005;SDS011;41888;44.696;10.522;2023-12-22T01:40:09;18.40;;;9.60;;
56005;SDS011;41888;44.696;10.522;2023-12-22T01:42:35;18.30;;;8.27;;
56005;SDS011;41888;44.696;10.522;2023-12-22T01:45:01;15.50;;;7.68;;
56005;SDS011;41888;44.696;10.522;2023-12-22T01:47:28;8.65;;;6.25;;
56005;SDS011;41888;44.696;10.522;2023-12-22T01:49:54;7.35;;;3.92;;
56005;SDS011;41888;44.696;10.522;2023-12-22T01:52:20;8.43;;;4.05;;
56005;SDS011;41888;44.696;10.522;2023-12-22T01:54:47;5.80;;;3.25;;
56005;SDS011;41888;44.696;10.522;2023-12-22T01:57:14;5.60;;;2.42;;
56005;SDS011;41888;44.696;10.522;2023-12-22T01:59:43;5.63;;;2.33;;
56005;SDS011;41888;44.696;10.522;2023-12-22T02:02:09;3.70;;;2.00;;
56005;SDS011;41888;44.696;10.522;2023-12-22T02:04:36;2.60;;;1.38;;
56005;SDS011;41888;44.696;10.522;2023-12-22T02:07:02;3.50;;;1.30;;
56005;SDS011;41888;44.696;10.522;2023-12-22T02:09:33;4.65;;;1.25;;
56005;SDS011;41888;44.696;10.522;2023-12-22T02:11:59;2.53;;;1.27;;
56005;SDS011;41888;44.696;10.522;2023-12-22T02:14:25;4.28;;;1.20;;
56005;SDS011;41888;44.696;10.522;2023-12-22T02:16:56;3.20;;;0.98;;
56005;SDS011;41888;44.696;10.522;2023-12-22T02:22:09;9.07;;;4.25;;
56005;SDS011;41888;44.696;10.522;2023-12-22T02:24:37;13.30;;;7.45;;
56005;SDS011;41888;44.696;10.522;2023-12-22T02:27:04;13.98;;;6.90;;
56005;SDS011;41888;44.696;10.522;2023-12-22T02:29:41;17.15;;;8.60;;
56005;SDS011;41888;44.696;10.522;2023-12-22T02:32:14;7.15;;;3.80;;
56005;SDS011;41888;44.696;10.522;2023-12-22T02:34:47;7.07;;;1.85;;
56005;SDS011;41888;44.696;10.522;2023-12-22T02:37:16;3.72;;;1.73;;
56005;SDS011;41888;44.696;10.522;2023-12-22T02:39:45;1.20;;;0.52;;
56005;SDS011;41888;44.696;10.522;2023-12-22T02:42:12;2.75;;;0.45;;
56005;SDS011;41888;44.696;10.522;2023-12-22T02:44:38;0.60;;;0.40;;
56005;SDS011;41888;44.696;10.522;2023-12-22T02:47:05;3.20;;;0.57;;
56005;SDS011;41888;44.696;10.522;2023-12-22T02:49:31;1.25;;;0.50;;
56005;SDS011;41888;44.696;10.522;2023-12-22T02:51:57;1.80;;;0.47;;
56005;SDS011;41888;44.696;10.522;2023-12-22T02:54:23;1.85;;;0.60;;
56005;SDS011;41888;44.696;10.522;2023-12-22T02:56:49;1.25;;;0.60;;
56005;SDS011;41888;44.696;10.522;2023-12-22T02:59:16;1.45;;;0.50;;
56005;SDS011;41888;44.696;10.522;2023-12-22T03:01:42;3.92;;;0.80;;
56005;SDS011;41888;44.696;10.522;2023-12-22T03:04:08;0.93;;;0.30;;
56005;SDS011;41888;44.696;10.522;2023-12-22T03:06:34;1.40;;;0.50;;
56005;SDS011;41888;44.696;10.522;2023-12-22T03:09:00;1.70;;;0.43;;
56005;SDS011;41888;44.696;10.522;2023-12-22T03:11:27;1.23;;;0.65;;
56005;SDS011;41888;44.696;10.522;2023-12-22T03:13:54;1.05;;;0.60;;
56005;SDS011;41888;44.696;10.522;2023-12-22T03:16:20;1.15;;;0.40;;
56005;SDS011;41888;44.696;10.522;2023-12-22T03:18:46;0.88;;;0.60;;
56005;SDS011;41888;44.696;10.522;2023-12-22T03:21:16;2.20;;;0.40;;
56005;SDS011;41888;44.696;10.522;2023-12-22T03:23:43;1.05;;;0.40;;
56005;SDS011;41888;44.696;10.522;2023-12-22T03:26:10;2.58;;;0.80;;
56005;SDS011;41888;44.696;10.522;2023-12-22T03:28:36;3.83;;;0.95;;
56005;SDS011;41888;44.696;10.522;2023-12-22T03:31:03;1.33;;;0.55;;
56005;SDS011;41888;44.696;10.522;2023-12-22T03:33:31;1.05;;;0.40;;
56005;SDS011;41888;44.696;10.522;2023-12-22T03:35:57;1.88;;;0.70;;
56005;SDS011;41888;44.696;10.522;2023-12-22T03:38:23;1.27;;;0.68;;
56005;SDS011;41888;44.696;10.522;2023-12-22T03:40:49;1.35;;;0.70;;
56005;SDS011;41888;44.696;10.522;2023-12-22T03:43:16;1.30;;;0.50;;
56005;SDS011;41888;44.696;10.522;2023-12-22T03:45:42;1.38;;;1.05;;
56005;SDS011;41888;44.696;10.522;2023-12-22T03:48:08;1.15;;;0.52;;
56005;SDS011;41888;44.696;10.522;2023-12-22T03:50:34;0.95;;;0.40;;
56005;SDS011;41888;44.696;10.522;2023-12-22T03:53:00;1.02;;;0.50;;
56005;SDS011;41888;44.696;10.522;2023-12-22T03:55:26;1.20;;;0.43;;
56005;SDS011;41888;44.696;10.522;2023-12-22T03:57:53;4.78;;;0.73;;
56005;SDS011;41888;44.696;10.522;2023-12-22T04:00:19;1.00;;;0.50;;
56005;SDS011;41888;44.696;10.522;2023-12-22T04:02:45;0.93;;;0.25;;
56005;SDS011;41888;44.696;10.522;2023-12-22T04:05:11;1.27;;;0.57;;
56005;SDS011;41888;44.696;10.522;2023-12-22T04:07:38;0.95;;;0.38;;
56005;SDS011;41888;44.696;10.522;2023-12-22T04:10:04;1.70;;;0.40;;
56005;SDS011;41888;44.696;10.522;2023-12-22T04:12:30;2.95;;;0.70;;
56005;SDS011;41888;44.696;10.522;2023-12-22T04:14:57;1.33;;;1.05;;
56005;SDS011;41888;44.696;10.522;2023-12-22T04:17:23;1.45;;;0.32;;
56005;SDS011;41888;44.696;10.522;2023-12-22T04:19:49;0.68;;;0.40;;
56005;SDS011;41888;44.696;10.522;2023-12-22T04:22:15;1.70;;;0.50;;
56005;SDS011;41888;44.696;10.522;2023-12-22T04:24:41;1.05;;;0.57;;
56005;SDS011;41888;44.696;10.522;2023-12-22T04:27:08;1.33;;;0.45;;
56005;SDS011;41888;44.696;10.522;2023-12-22T04:29:34;1.30;;;0.40;;
56005;SDS011;41888;44.696;10.522;2023-12-22T04:32:00;1.50;;;0.90;;
56005;SDS011;41888;44.696;10.522;2023-12-22T04:34:26;1.05;;;0.60;;
56005;SDS011;41888;44.696;10.522;2023-12-22T04:36:52;1.10;;;0.73;;
56005;SDS011;41888;44.696;10.522;2023-12-22T04:39:19;2.70;;;0.55;;
56005;SDS011;41888;44.696;10.522;2023-12-22T04:41:45;2.50;;;0.50;;
56005;SDS011;41888;44.696;10.522;2023-12-22T04:44:11;0.95;;;0.60;;
56005;SDS011;41888;44.696;10.522;2023-12-22T04:46:37;2.47;;;0.80;;
56005;SDS011;41888;44.696;10.522;2023-12-22T04:49:03;1.38;;;0.50;;
56005;SDS011;41888;44.696;10.522;2023-12-22T04:51:29;2.30;;;0.57;;
56005;SDS011;41888;44.696;10.522;2023-12-22T04:53:56;1.90;;;0.50;;
56005;SDS011;41888;44.696;10.522;2023-12-22T04:56:22;1.20;;;0.50;;
56005;SDS011;41888;44.696;10.522;2023-12-22T04:58:48;2.72;;;0.60;;
56005;SDS011;41888;44.696;10.522;2023-12-22T05:01:15;1.85;;;0.35;;
56005;SDS011;41888;44.696;10.522;2023-12-22T05:03:41;1.10;;;0.60;;
56005;SDS011;41888;44.696;10.522;2023-12-22T05:06:07;4.28;;;0.50;;
56005;SDS011;41888;44.696;10.522;2023-12-22T05:08:33;1.83;;;0.50;;
56005;SDS011;41888;44.696;10.522;2023-12-22T05:11:00;1.98;;;0.47;;
56005;SDS011;41888;44.696;10.522;2023-12-22T05:13:26;1.40;;;0.50;;
56005;SDS011;41888;44.696;10.522;2023-12-22T05:15:52;1.08;;;0.50;;
56005;SDS011;41888;44.696;10.522;2023-12-22T05:18:18;0.90;;;0.50;;
56005;SDS011;41888;44.696;10.522;2023-12-22T05:20:44;2.28;;;0.70;;
56005;SDS011;41888;44.696;10.522;2023-12-22T05:23:11;6.85;;;0.95;;
56005;SDS011;41888;44.696;10.522;2023-12-22T05:25:37;1.20;;;0.60;;
56005;SDS011;41888;44.696;10.522;2023-12-22T05:28:03;1.45;;;0.60;;
56005;SDS011;41888;44.696;10.522;2023-12-22T05:30:29;1.15;;;0.50;;
56005;SDS011;41888;44.696;10.522;2023-12-22T05:32:55;2.78;;;0.55;;
56005;SDS011;41888;44.696;10.522;2023-12-22T05:35:22;1.45;;;0.60;;
56005;SDS011;41888;44.696;10.522;2023-12-22T05:37:48;4.53;;;0.90;;
56005;SDS011;41888;44.696;10.522;2023-12-22T05:40:15;1.15;;;0.47;;
56005;SDS011;41888;44.696;10.522;2023-12-22T05:42:41;1.38;;;0.30;;
56005;SDS011;41888;44.696;10.522;2023-12-22T05:45:07;1.65;;;0.80;;
56005;SDS011;41888;44.696;10.522;2023-12-22T05:47:36;1.55;;;0.80;;
56005;SDS011;41888;44.696;10.522;2023-12-22T05:50:03;5.07;;;0.70;;
56005;SDS011;41888;44.696;10.522;2023-12-22T05:52:29;1.15;;;0.65;;
56005;SDS011;41888;44.696;10.522;2023-12-22T05:54:55;0.95;;;0.47;;
56005;SDS011;41888;44.696;10.522;2023-12-22T05:57:22;2.80;;;0.75;;
56005;SDS011;41888;44.696;10.522;2023-12-22T05:59:50;1.50;;;0.70;;
56005;SDS011;41888;44.696;10.522;2023-12-22T06:02:16;1.98;;;0.60;;
56005;SDS011;41888;44.696;10.522;2023-12-22T06:04:42;1.13;;;0.50;;
56005;SDS011;41888;44.696;10.522;2023-12-22T06:07:09;3.65;;;0.40;;
56005;SDS011;41888;44.696;10.522;2023-12-22T06:09:35;1.95;;;0.85;;
56005;SDS011;41888;44.696;10.522;2023-12-22T06:12:02;1.83;;;0.50;;
56005;SDS011;41888;44.696;10.522;2023-12-22T06:14:28;0.90;;;0.30;;
56005;SDS011;41888;44.696;10.522;2023-12-22T06:16:54;1.63;;;0.40;;
56005;SDS011;41888;44.696;10.522;2023-12-22T06:19:22;2.05;;;0.50;;
56005;SDS011;41888;44.696;10.522;2023-12-22T06:21:50;3.33;;;0.95;;
56005;SDS011;41888;44.696;10.522;2023-12-22T06:24:16;4.82;;;0.70;;
56005;SDS011;41888;44.696;10.522;2023-12-22T06:26:42;3.67;;;0.60;;
56005;SDS011;41888;44.696;10.522;2023-12-22T06:29:08;1.33;;;0.55;;
56005;SDS011;41888;44.696;10.522;2023-12-22T06:31:35;1.02;;;0.52;;
56005;SDS011;41888;44.696;10.522;2023-12-22T06:34:01;1.02;;;0.60;;
56005;SDS011;41888;44.696;10.522;2023-12-22T06:36:27;1.77;;;0.60;;
56005;SDS011;41888;44.696;10.522;2023-12-22T06:38:56;1.65;;;0.77;;
56005;SDS011;41888;44.696;10.522;2023-12-22T06:41:23;2.30;;;0.55;;
56005;SDS011;41888;44.696;10.522;2023-12-22T06:43:51;8.07;;;1.55;;
56005;SDS011;41888;44.696;10.522;2023-12-22T06:46:18;5.45;;;0.90;;
56005;SDS011;41888;44.696;10.522;2023-12-22T06:48:45;2.05;;;0.70;;
56005;SDS011;41888;44.696;10.522;2023-12-22T06:51:18;3.05;;;2.00;;
56005;SDS011;41888;44.696;10.522;2023-12-22T06:53:45;2.97;;;0.70;;
56005;SDS011;41888;44.696;10.522;2023-12-22T06:56:15;2.53;;;1.20;;
56005;SDS011;41888;44.696;10.522;2023-12-22T06:58:43;2.35;;;0.55;;
56005;SDS011;41888;44.696;10.522;2023-12-22T07:01:12;1.08;;;0.73;;
56005;SDS011;41888;44.696;10.522;2023-12-22T07:03:43;3.92;;;1.30;;
56005;SDS011;41888;44.696;10.522;2023-12-22T07:06:09;2.40;;;0.60;;
56005;SDS011;41888;44.696;10.522;2023-12-22T07:08:36;1.95;;;0.65;;
56005;SDS011;41888;44.696;10.522;2023-12-22T07:11:04;1.98;;;0.70;;
56005;SDS011;41888;44.696;10.522;2023-12-22T07:13:30;1.40;;;0.60;;
56005;SDS011;41888;44.696;10.522;2023-12-22T07:15:56;1.67;;;0.60;;
56005;SDS011;41888;44.696;10.522;2023-12-22T07:18:22;1.58;;;0.80;;
56005;SDS011;41888;44.696;10.522;2023-12-22T07:20:50;2.05;;;0.60;;
56005;SDS011;41888;44.696;10.522;2023-12-22T07:23:16;4.60;;;0.77;;
56005;SDS011;41888;44.696;10.522;2023-12-22T07:25:42;2.67;;;0.73;;
56005;SDS011;41888;44.696;10.522;2023-12-22T07:28:08;1.70;;;0.60;;
56005;SDS011;41888;44.696;10.522;2023-12-22T07:30:35;3.70;;;0.70;;
56005;SDS011;41888;44.696;10.522;2023-12-22T07:33:01;2.35;;;0.52;;
56005;SDS011;41888;44.696;10.522;2023-12-22T07:35:27;1.48;;;0.50;;
56005;SDS011;41888;44.696;10.522;2023-12-22T07:37:54;0.88;;;0.47;;
56005;SDS011;41888;44.696;10.522;2023-12-22T07:40:20;2.15;;;0.80;;
56005;SDS011;41888;44.696;10.522;2023-12-22T07:42:46;2.13;;;0.68;;
56005;SDS011;41888;44.696;10.522;2023-12-22T07:45:12;4.55;;;0.52;;
56005;SDS011;41888;44.696;10.522;2023-12-22T07:47:38;1.08;;;0.40;;
56005;SDS011;41888;44.696;10.522;2023-12-22T07:50:05;2.60;;;0.60;;
56005;SDS011;41888;44.696;10.522;2023-12-22T07:52:33;1.23;;;0.32;;
56005;SDS011;41888;44.696;10.522;2023-12-22T07:55:04;2.83;;;0.85;;
56005;SDS011;41888;44.696;10.522;2023-12-22T07:57:33;0.95;;;0.30;;
56005;SDS011;41888;44.696;10.522;2023-12-22T07:59:59;1.95;;;0.30;;
56005;SDS011;41888;44.696;10.522;2023-12-22T08:02:26;1.42;;;0.45;;
56005;SDS011;41888;44.696;10.522;2023-12-22T08:04:52;0.80;;;0.38;;
56005;SDS011;41888;44.696;10.522;2023-12-22T08:07:18;1.35;;;0.47;;
56005;SDS011;41888;44.696;10.522;2023-12-22T08:09:44;1.38;;;0.68;;
56005;SDS011;41888;44.696;10.522;2023-12-22T08:12:10;2.40;;;0.65;;
56005;SDS011;41888;44.696;10.522;2023-12-22T08:14:37;6.05;;;0.95;;
56005;SDS011;41888;44.696;10.522;2023-12-22T08:17:03;4.60;;;1.00;;
56005;SDS011;41888;44.696;10.522;2023-12-22T08:19:29;4.20;;;1.20;;
56005;SDS011;41888;44.696;10.522;2023-12-22T08:21:55;2.55;;;1.02;;
56005;SDS011;41888;44.696;10.522;2023-12-22T08:24:22;4.25;;;1.10;;
56005;SDS011;41888;44.696;10.522;2023-12-22T08:26:48;2.33;;;0.63;;
56005;SDS011;41888;44.696;10.522;2023-12-22T08:29:15;6.13;;;2.13;;
56005;SDS011;41888;44.696;10.522;2023-12-22T08:31:41;5.72;;;1.00;;
56005;SDS011;41888;44.696;10.522;2023-12-22T08:34:08;4.07;;;0.65;;
56005;SDS011;41888;44.696;10.522;2023-12-22T08:36:35;1.48;;;0.40;;
56005;SDS011;41888;44.696;10.522;2023-12-22T08:39:15;4.55;;;1.00;;
56005;SDS011;41888;44.696;10.522;2023-12-22T08:41:41;1.65;;;0.63;;
56005;SDS011;41888;44.696;10.522;2023-12-22T08:44:07;4.13;;;1.25;;
56005;SDS011;41888;44.696;10.522;2023-12-22T08:46:34;3.45;;;1.13;;
56005;SDS011;41888;44.696;10.522;2023-12-22T08:49:00;4.28;;;0.80;;
56005;SDS011;41888;44.696;10.522;2023-12-22T08:51:27;4.70;;;0.98;;
56005;SDS011;41888;44.696;10.522;2023-12-22T08:53:54;3.10;;;0.98;;
56005;SDS011;41888;44.696;10.522;2023-12-22T08:56:21;1.58;;;0.40;;
56005;SDS011;41888;44.696;10.522;2023-12-22T08:58:48;4.68;;;0.90;;
56005;SDS011;41888;44.696;10.522;2023-12-22T09:01:17;5.20;;;2.33;;
56005;SDS011;41888;44.696;10.522;2023-12-22T09:03:44;4.72;;;1.27;;
56005;SDS011;41888;44.696;10.522;2023-12-22T09:06:15;1.60;;;0.57;;
56005;SDS011;41888;44.696;10.522;2023-12-22T09:08:41;0.77;;;0.30;;
56005;SDS011;41888;44.696;10.522;2023-12-22T09:11:08;0.65;;;0.30;;
56005;SDS011;41888;44.696;10.522;2023-12-22T09:13:36;3.45;;;0.57;;
56005;SDS011;41888;44.696;10.522;2023-12-22T09:16:03;3.25;;;0.60;;
56005;SDS011;41888;44.696;10.522;2023-12-22T09:18:30;2.35;;;0.60;;
56005;SDS011;41888;44.696;10.522;2023-12-22T09:20:57;1.85;;;0.55;;
56005;SDS011;41888;44.696;10.522;2023-12-22T09:23:23;3.63;;;0.40;;
56005;SDS011;41888;44.696;10.522;2023-12-22T09:25:50;3.75;;;0.52;;
56005;SDS011;41888;44.696;10.522;2023-12-22T09:28:16;2.28;;;0.77;;
56005;SDS011;41888;44.696;10.522;2023-12-22T09:30:42;9.48;;;0.70;;
56005;SDS011;41888;44.696;10.522;2023-12-22T09:33:09;6.47;;;1.38;;
56005;SDS011;41888;44.696;10.522;2023-12-22T09:35:35;5.25;;;0.90;;
56005;SDS011;41888;44.696;10.522;2023-12-22T09:38:02;3.75;;;1.33;;
56005;SDS011;41888;44.696;10.522;2023-12-22T09:40:28;3.50;;;0.60;;
56005;SDS011;41888;44.696;10.522;2023-12-22T09:42:55;4.30;;;0.60;;
56005;SDS011;41888;44.696;10.522;2023-12-22T09:45:23;1.27;;;0.60;;
56005;SDS011;41888;44.696;10.522;2023-12-22T09:47:50;2.42;;;0.80;;
56005;SDS011;41888;44.696;10.522;2023-12-22T09:50:17;1.20;;;0.40;;
56005;SDS011;41888;44.696;10.522;2023-12-22T09:52:45;1.73;;;0.63;;
56005;SDS011;41888;44.696;10.522;2023-12-22T09:55:14;2.38;;;0.50;;
56005;SDS011;41888;44.696;10.522;2023-12-22T09:57:41;3.53;;;0.60;;
56005;SDS011;41888;44.696;10.522;2023-12-22T10:00:09;2.35;;;0.75;;
56005;SDS011;41888;44.696;10.522;2023-12-22T10:02:38;2.47;;;0.50;;
56005;SDS011;41888;44.696;10.522;2023-12-22T10:05:05;1.80;;;0.80;;
56005;SDS011;41888;44.696;10.522;2023-12-22T10:07:31;1.73;;;0.50;;
56005;SDS011;41888;44.696;10.522;2023-12-22T10:09:58;3.35;;;1.00;;
56005;SDS011;41888;44.696;10.522;2023-12-22T10:12:28;2.90;;;0.55;;
56005;SDS011;41888;44.696;10.522;2023-12-22T10:14:56;1.40;;;0.55;;
56005;SDS011;41888;44.696;10.522;2023-12-22T10:17:24;1.52;;;0.30;;
56005;SDS011;41888;44.696;10.522;2023-12-22T10:19:51;1.52;;;0.35;;
56005;SDS011;41888;44.696;10.522;2023-12-22T10:22:17;0.85;;;0.30;;
56005;SDS011;41888;44.696;10.522;2023-12-22T10:24:46;1.02;;;0.40;;
56005;SDS011;41888;44.696;10.522;2023-12-22T10:27:13;1.27;;;0.28;;
56005;SDS011;41888;44.696;10.522;2023-12-22T10:29:40;3.03;;;0.60;;
56005;SDS011;41888;44.696;10.522;2023-12-22T10:32:07;2.88;;;0.22;;
56005;SDS011;41888;44.696;10.522;2023-12-22T10:34:34;2.92;;;1.20;;
56005;SDS011;41888;44.696;10.522;2023-12-22T10:37:00;3.40;;;0.60;;
56005;SDS011;41888;44.696;10.522;2023-12-22T10:39:27;1.80;;;0.20;;
56005;SDS011;41888;44.696;10.522;2023-12-22T10:41:54;1.05;;;0.20;;
56005;SDS011;41888;44.696;10.522;2023-12-22T10:44:25;3.28;;;0.60;;
56005;SDS011;41888;44.696;10.522;2023-12-22T10:46:55;3.63;;;1.13;;
56005;SDS011;41888;44.696;10.522;2023-12-22T10:49:22;4.13;;;0.70;;
56005;SDS011;41888;44.696;10.522;2023-12-22T10:51:49;3.65;;;0.50;;
56005;SDS011;41888;44.696;10.522;2023-12-22T10:54:17;3.28;;;0.52;;
56005;SDS011;41888;44.696;10.522;2023-12-22T10:56:44;2.40;;;0.90;;
56005;SDS011;41888;44.696;10.522;2023-12-22T10:59:10;2.40;;;0.85;;
56005;SDS011;41888;44.696;10.522;2023-12-22T11:01:37;2.55;;;0.88;;
56005;SDS011;41888;44.696;10.522;2023-12-22T11:04:07;0.85;;;0.35;;
56005;SDS011;41888;44.696;10.522;2023-12-22T11:06:39;1.77;;;0.40;;
56005;SDS011;41888;44.696;10.522;2023-12-22T11:09:09;1.08;;;0.30;;
56005;SDS011;41888;44.696;10.522;2023-12-22T11:11:36;1.52;;;0.45;;
56005;SDS011;41888;44.696;10.522;2023-12-22T11:14:03;2.40;;;0.28;;
56005;SDS011;41888;44.696;10.522;2023-12-22T11:16:31;0.88;;;0.38;;
56005;SDS011;41888;44.696;10.522;2023-12-22T11:19:00;2.63;;;0.40;;
56005;SDS011;41888;44.696;10.522;2023-12-22T11:21:28;3.45;;;0.50;;
56005;SDS011;41888;44.696;10.522;2023-12-22T11:23:55;4.97;;;1.00;;
56005;SDS011;41888;44.696;10.522;2023-12-22T11:26:24;1.00;;;0.30;;
56005;SDS011;41888;44.696;10.522;2023-12-22T11:28:52;0.93;;;0.30;;
56005;SDS011;41888;44.696;10.522;2023-12-22T11:31:18;0.70;;;0.20;;
56005;SDS011;41888;44.696;10.522;2023-12-22T11:33:46;2.05;;;0.10;;
56005;SDS011;41888;44.696;10.522;2023-12-22T11:36:13;2.92;;;0.30;;
56005;SDS011;41888;44.696;10.522;2023-12-22T11:38:40;7.20;;;0.60;;
56005;SDS011;41888;44.696;10.522;2023-12-22T11:41:18;1.63;;;0.20;;
56005;SDS011;41888;44.696;10.522;2023-12-22T11:43:49;2.83;;;0.30;;
56005;SDS011;41888;44.696;10.522;2023-12-22T11:46:16;0.68;;;0.20;;
56005;SDS011;41888;44.696;10.522;2023-12-22T11:48:47;1.65;;;0.20;;
56005;SDS011;41888;44.696;10.522;2023-12-22T11:51:14;3.92;;;0.20;;
56005;SDS011;41888;44.696;10.522;2023-12-22T11:53:41;0.20;;;0.10;;
56005;SDS011;41888;44.696;10.522;2023-12-22T11:56:09;3.38;;;0.38;;
56005;SDS011;41888;44.696;10.522;2023-12-22T11:58:40;0.40;;;0.20;;
56005;SDS011;41888;44.696;10.522;2023-12-22T12:01:20;0.10;;;0.10;;
56005;SDS011;41888;44.696;10.522;2023-12-22T12:03:52;1.60;;;0.20;;
56005;SDS011;41888;44.696;10.522;2023-12-22T12:09:01;2.08;;;0.10;;
56005;SDS011;41888;44.696;10.522;2023-12-22T12:14:21;0.77;;;0.20;;
56005;SDS011;41888;44.696;10.522;2023-12-22T12:16:55;0.38;;;0.10;;
56005;SDS011;41888;44.696;10.522;2023-12-22T12:19:41;0.35;;;0.20;;
56005;SDS011;41888;44.696;10.522;2023-12-22T12:22:07;0.55;;;0.10;;
56005;SDS011;41888;44.696;10.522;2023-12-22T12:24:35;0.60;;;0.10;;
56005;SDS011;41888;44.696;10.522;2023-12-22T12:27:03;0.32;;;0.20;;
56005;SDS011;41888;44.696;10.522;2023-12-22T12:29:30;2.28;;;0.30;;
56005;SDS011;41888;44.696;10.522;2023-12-22T12:32:04;1.63;;;0.30;;
56005;SDS011;41888;44.696;10.522;2023-12-22T12:34:31;0.43;;;0.20;;
56005;SDS011;41888;44.696;10.522;2023-12-22T12:36:58;0.57;;;0.20;;
56005;SDS011;41888;44.696;10.522;2023-12-22T12:39:25;1.38;;;0.22;;
56005;SDS011;41888;44.696;10.522;2023-12-22T12:41:57;3.85;;;0.20;;
56005;SDS011;41888;44.696;10.522;2023-12-22T12:44:27;1.15;;;0.30;;
56005;SDS011;41888;44.696;10.522;2023-12-22T12:46:57;0.90;;;0.20;;
56005;SDS011;41888;44.696;10.522;2023-12-22T12:49:27;0.88;;;0.20;;
56005;SDS011;41888;44.696;10.522;2023-12-22T12:51:56;1.10;;;0.10;;
56005;SDS011;41888;44.696;10.522;2023-12-22T12:54:22;3.92;;;0.70;;
56005;SDS011;41888;44.696;10.522;2023-12-22T12:56:48;2.17;;;0.30;;
56005;SDS011;41888;44.696;10.522;2023-12-22T12:59:15;0.90;;;0.22;;
56005;SDS011;41888;44.696;10.522;2023-12-22T13:01:46;2.08;;;0.30;;
56005;SDS011;41888;44.696;10.522;2023-12-22T13:04:13;3.33;;;0.98;;
56005;SDS011;41888;44.696;10.522;2023-12-22T13:06:44;0.70;;;0.30;;
56005;SDS011;41888;44.696;10.522;2023-12-22T13:09:10;2.47;;;0.30;;
56005;SDS011;41888;44.696;10.522;2023-12-22T13:11:38;0.38;;;0.20;;
56005;SDS011;41888;44.696;10.522;2023-12-22T13:14:04;0.40;;;0.10;;
56005;SDS011;41888;44.696;10.522;2023-12-22T13:16:33;0.38;;;0.20;;
56005;SDS011;41888;44.696;10.522;2023-12-22T13:18:59;0.77;;;0.20;;
56005;SDS011;41888;44.696;10.522;2023-12-22T13:21:26;0.52;;;0.20;;
56005;SDS011;41888;44.696;10.522;2023-12-22T13:26:40;0.77;;;0.10;;
56005;SDS011;41888;44.696;10.522;2023-12-22T13:29:08;0.52;;;0.28;;
56005;SDS011;41888;44.696;10.522;2023-12-22T13:31:41;0.47;;;0.10;;
56005;SDS011;41888;44.696;10.522;2023-12-22T13:34:11;0.50;;;0.40;;
56005;SDS011;41888;44.696;10.522;2023-12-22T13:36:39;1.73;;;0.30;;
56005;SDS011;41888;44.696;10.522;2023-12-22T13:39:07;1.13;;;0.10;;
56005;SDS011;41888;44.696;10.522;2023-12-22T13:41:34;1.05;;;0.20;;
56005;SDS011;41888;44.696;10.522;2023-12-22T13:44:05;0.85;;;0.20;;
56005;SDS011;41888;44.696;10.522;2023-12-22T13:46:32;0.80;;;0.20;;
56005;SDS011;41888;44.696;10.522;2023-12-22T13:49:02;3.42;;;0.40;;
56005;SDS011;41888;44.696;10.522;2023-12-22T13:51:38;0.88;;;0.30;;
56005;SDS011;41888;44.696;10.522;2023-12-22T13:54:04;1.55;;;0.30;;
56005;SDS011;41888;44.696;10.522;2023-12-22T13:56:34;2.22;;;0.50;;
56005;SDS011;41888;44.696;10.522;2023-12-22T13:59:01;2.55;;;0.30;;
56005;SDS011;41888;44.696;10.522;2023-12-22T14:01:29;0.73;;;0.22;;
56005;SDS011;41888;44.696;10.522;2023-12-22T14:03:55;2.03;;;0.60;;
56005;SDS011;41888;44.696;10.522;2023-12-22T14:06:27;0.50;;;0.10;;
56005;SDS011;41888;44.696;10.522;2023-12-22T14:08:54;0.55;;;0.25;;
56005;SDS011;41888;44.696;10.522;2023-12-22T14:11:21;1.20;;;0.30;;
56005;SDS011;41888;44.696;10.522;2023-12-22T14:13:47;0.88;;;0.10;;
56005;SDS011;41888;44.696;10.522;2023-12-22T14:16:14;3.22;;;0.50;;
56005;SDS011;41888;44.696;10.522;2023-12-22T14:18:41;2.22;;;0.77;;
56005;SDS011;41888;44.696;10.522;2023-12-22T14:21:07;3.70;;;0.75;;
56005;SDS011;41888;44.696;10.522;2023-12-22T14:23:34;4.63;;;1.58;;
56005;SDS011;41888;44.696;10.522;2023-12-22T14:26:00;3.17;;;0.50;;
56005;SDS011;41888;44.696;10.522;2023-12-22T14:28:26;2.65;;;0.70;;
56005;SDS011;41888;44.696;10.522;2023-12-22T14:30:53;1.63;;;0.50;;
56005;SDS011;41888;44.696;10.522;2023-12-22T14:33:19;1.35;;;0.30;;
56005;SDS011;41888;44.696;10.522;2023-12-22T14:35:45;0.17;;;0.10;;
56005;SDS011;41888;44.696;10.522;2023-12-22T14:38:11;1.67;;;0.20;;
56005;SDS011;41888;44.696;10.522;2023-12-22T14:40:38;0.38;;;0.17;;